White Star — ZCNP2 — position and weather

sailwx.info

Track history (hours):
 
Tides and Currents Weather Stations Pressure Air Temp Water Temp Dewpoint Dewpoint Depression Visibility Wind Speed Wind Dir Waves Ship Positions

White Star

Last reported at 2016-Aug-21 13:33 UTC. Time now 2016-Aug-31 06:07 UTC.
Position N 41°56' E 018°34'.
Warning: this ship's position is 9 days out of date.

Length 45 m; draft 2.7 m.

Type: Pleasure craft. MMSI: 319035000.

Date/timePositionNaut miles runAvg speedWind from/ knotsBaromVisibWave heightAir tempDewpointWater temp
2016-Aug-21 13:33N 41°56' E 018°34'1616.3
2016-Aug-21 12:33N 42°11' E 018°26'  
2016-Aug-14 14:21N 42°25' E 018°28'7 8.9
2016-Aug-14 13:34N 42°26' E 018°38'6 5.9
2016-Aug-14 12:34N 42°26' E 018°46'0 0.3
2016-Aug-14 11:34N 42°25' E 018°46'0 0.0
2016-Aug-14 10:33N 42°25' E 018°46'0 0.0
2016-Aug-14 09:33N 42°25' E 018°46'0 0.0
2016-Aug-14 08:33N 42°25' E 018°46'0 0.0
2016-Aug-14 07:33N 42°25' E 018°46'0 0.0
2016-Aug-14 06:33N 42°25' E 018°46'0 0.0
2016-Aug-14 04:33N 42°25' E 018°46'0 0.0
2016-Aug-14 03:33N 42°25' E 018°46'0 0.0
2016-Aug-14 02:33N 42°25' E 018°46'0 0.0
2016-Aug-14 01:33N 42°25' E 018°46'0 0.0
2016-Aug-14 00:33N 42°25' E 018°46'0 0.0
2016-Aug-13 23:33N 42°25' E 018°46'0 0.0
2016-Aug-13 22:33N 42°25' E 018°46'0 0.0
2016-Aug-13 21:33N 42°25' E 018°46'0 0.0
2016-Aug-13 20:33N 42°25' E 018°46'0 0.0
2016-Aug-13 19:33N 42°25' E 018°46'0 0.0
2016-Aug-13 18:33N 42°25' E 018°46'0 0.0
2016-Aug-13 17:33N 42°25' E 018°46'0 0.0
2016-Aug-13 16:34N 42°25' E 018°46'0 0.0
2016-Aug-13 15:33N 42°25' E 018°46'0 0.0
2016-Aug-13 14:33N 42°25' E 018°46'0 0.0
2016-Aug-13 13:33N 42°25' E 018°46'0 0.0
2016-Aug-13 12:33N 42°25' E 018°46'0 0.0
2016-Aug-13 11:34N 42°25' E 018°46'0 0.0
2016-Aug-13 10:33N 42°25' E 018°46'0 0.0
2016-Aug-13 09:33N 42°25' E 018°46'0 0.0
2016-Aug-13 08:33N 42°25' E 018°46'0 0.0
2016-Aug-13 07:33N 42°25' E 018°46'0 0.0
2016-Aug-13 06:34N 42°25' E 018°46'0 0.0
2016-Aug-13 05:34N 42°25' E 018°46'0 0.0
2016-Aug-13 04:33N 42°25' E 018°46'0 0.0
2016-Aug-13 03:33N 42°25' E 018°46'0 0.0
2016-Aug-13 02:34N 42°25' E 018°46'0 0.0
2016-Aug-13 01:33N 42°25' E 018°46'0 0.0
2016-Aug-13 00:33N 42°25' E 018°46'0 0.0
2016-Aug-12 23:33N 42°25' E 018°46'0 0.0
2016-Aug-12 22:33N 42°25' E 018°46'0 0.0
2016-Aug-12 21:33N 42°25' E 018°46'0 0.0
2016-Aug-12 20:34N 42°25' E 018°46'0 0.0
2016-Aug-12 19:33N 42°25' E 018°46'0 0.0
2016-Aug-12 18:33N 42°25' E 018°46'0 0.0
2016-Aug-12 17:33N 42°25' E 018°46'0 0.0
2016-Aug-12 16:33N 42°25' E 018°46'0 0.0
2016-Aug-12 15:33N 42°25' E 018°46'0 0.0
2016-Aug-12 14:33N 42°25' E 018°46'0 0.0
2016-Aug-12 13:33N 42°25' E 018°46'0 0.0
2016-Aug-12 12:33N 42°25' E 018°46'0 0.0
2016-Aug-12 11:34N 42°25' E 018°46'4 4.4
2016-Aug-12 10:33N 42°29' E 018°42'3 2.8
2016-Aug-12 09:31N 42°26' E 018°42'0 0.0
2016-Aug-12 08:31N 42°26' E 018°42'0 0.0
2016-Aug-12 07:31N 42°26' E 018°42'0 0.0
2016-Aug-12 06:31N 42°26' E 018°42'0 0.0
2016-Aug-12 05:31N 42°26' E 018°42'0 0.0
2016-Aug-12 04:31N 42°26' E 018°42'0 0.0
2016-Aug-12 03:31N 42°26' E 018°42'0 0.0
2016-Aug-12 02:31N 42°26' E 018°42'0 0.0
2016-Aug-12 01:31N 42°26' E 018°42'0 0.0
2016-Aug-12 00:31N 42°26' E 018°42'0 0.0
2016-Aug-11 23:31N 42°26' E 018°42'0 0.0
2016-Aug-11 22:31N 42°26' E 018°42'0 0.0
2016-Aug-11 21:34N 42°26' E 018°42'0 0.0
2016-Aug-11 20:33N 42°26' E 018°42'0 0.0
2016-Aug-11 19:33N 42°26' E 018°42'0 0.0
2016-Aug-11 18:33N 42°26' E 018°42'0 0.0
2016-Aug-11 17:33N 42°26' E 018°42'0 0.0
2016-Aug-11 16:33N 42°26' E 018°42'0 0.0
2016-Aug-11 15:33N 42°26' E 018°42'0 0.0
2016-Aug-11 14:33N 42°26' E 018°42'  
Track history (hours):
 
Tides and Currents Weather Stations Pressure Air Temp Water Temp Dewpoint Dewpoint Depression Visibility Wind Speed Wind Dir Waves Ship Positions

White Star

Last reported at 2016-Aug-21 13:33 UTC. Time now 2016-Aug-31 06:07 UTC.
Position N 41°56' E 018°34'.
Warning: this ship's position is 9 days out of date.

Length 45 m; draft 2.7 m.

Type: Pleasure craft. MMSI: 319035000.

Date/timePositionNaut miles runAvg speedWind from/ knotsBaromVisibWave heightAir tempDewpointWater temp
2016-Aug-21 13:33N 41°56' E 018°34'1616.3
2016-Aug-21 12:33N 42°11' E 018°26'  
2016-Aug-14 14:21N 42°25' E 018°28'7 8.9
2016-Aug-14 13:34N 42°26' E 018°38'6 5.9
2016-Aug-14 12:34N 42°26' E 018°46'0 0.3
2016-Aug-14 11:34N 42°25' E 018°46'0 0.0
2016-Aug-14 10:33N 42°25' E 018°46'0 0.0
2016-Aug-14 09:33N 42°25' E 018°46'0 0.0
2016-Aug-14 08:33N 42°25' E 018°46'0 0.0
2016-Aug-14 07:33N 42°25' E 018°46'0 0.0
2016-Aug-14 06:33N 42°25' E 018°46'0 0.0
2016-Aug-14 04:33N 42°25' E 018°46'0 0.0
2016-Aug-14 03:33N 42°25' E 018°46'0 0.0
2016-Aug-14 02:33N 42°25' E 018°46'0 0.0
2016-Aug-14 01:33N 42°25' E 018°46'0 0.0
2016-Aug-14 00:33N 42°25' E 018°46'0 0.0
2016-Aug-13 23:33N 42°25' E 018°46'0 0.0
2016-Aug-13 22:33N 42°25' E 018°46'0 0.0
2016-Aug-13 21:33N 42°25' E 018°46'0 0.0
2016-Aug-13 20:33N 42°25' E 018°46'0 0.0
2016-Aug-13 19:33N 42°25' E 018°46'0 0.0
2016-Aug-13 18:33N 42°25' E 018°46'0 0.0
2016-Aug-13 17:33N 42°25' E 018°46'0 0.0
2016-Aug-13 16:34N 42°25' E 018°46'0 0.0
2016-Aug-13 15:33N 42°25' E 018°46'0 0.0
2016-Aug-13 14:33N 42°25' E 018°46'0 0.0
2016-Aug-13 13:33N 42°25' E 018°46'0 0.0
2016-Aug-13 12:33N 42°25' E 018°46'0 0.0
2016-Aug-13 11:34N 42°25' E 018°46'0 0.0
2016-Aug-13 10:33N 42°25' E 018°46'0 0.0
2016-Aug-13 09:33N 42°25' E 018°46'0 0.0
2016-Aug-13 08:33N 42°25' E 018°46'0 0.0
2016-Aug-13 07:33N 42°25' E 018°46'0 0.0
2016-Aug-13 06:34N 42°25' E 018°46'0 0.0
2016-Aug-13 05:34N 42°25' E 018°46'0 0.0
2016-Aug-13 04:33N 42°25' E 018°46'0 0.0
2016-Aug-13 03:33N 42°25' E 018°46'0 0.0
2016-Aug-13 02:34N 42°25' E 018°46'0 0.0
2016-Aug-13 01:33N 42°25' E 018°46'0 0.0
2016-Aug-13 00:33N 42°25' E 018°46'0 0.0
2016-Aug-12 23:33N 42°25' E 018°46'0 0.0
2016-Aug-12 22:33N 42°25' E 018°46'0 0.0
2016-Aug-12 21:33N 42°25' E 018°46'0 0.0
2016-Aug-12 20:34N 42°25' E 018°46'0 0.0
2016-Aug-12 19:33N 42°25' E 018°46'0 0.0
2016-Aug-12 18:33N 42°25' E 018°46'0 0.0
2016-Aug-12 17:33N 42°25' E 018°46'0 0.0
2016-Aug-12 16:33N 42°25' E 018°46'0 0.0
2016-Aug-12 15:33N 42°25' E 018°46'0 0.0
2016-Aug-12 14:33N 42°25' E 018°46'0 0.0
2016-Aug-12 13:33N 42°25' E 018°46'0 0.0
2016-Aug-12 12:33N 42°25' E 018°46'0 0.0
2016-Aug-12 11:34N 42°25' E 018°46'4 4.4
2016-Aug-12 10:33N 42°29' E 018°42'3 2.8
2016-Aug-12 09:31N 42°26' E 018°42'0 0.0
2016-Aug-12 08:31N 42°26' E 018°42'0 0.0
2016-Aug-12 07:31N 42°26' E 018°42'0 0.0
2016-Aug-12 06:31N 42°26' E 018°42'0 0.0
2016-Aug-12 05:31N 42°26' E 018°42'0 0.0
2016-Aug-12 04:31N 42°26' E 018°42'0 0.0
2016-Aug-12 03:31N 42°26' E 018°42'0 0.0
2016-Aug-12 02:31N 42°26' E 018°42'0 0.0
2016-Aug-12 01:31N 42°26' E 018°42'0 0.0
2016-Aug-12 00:31N 42°26' E 018°42'0 0.0
2016-Aug-11 23:31N 42°26' E 018°42'0 0.0
2016-Aug-11 22:31N 42°26' E 018°42'0 0.0
2016-Aug-11 21:34N 42°26' E 018°42'0 0.0
2016-Aug-11 20:33N 42°26' E 018°42'0 0.0
2016-Aug-11 19:33N 42°26' E 018°42'0 0.0
2016-Aug-11 18:33N 42°26' E 018°42'0 0.0
2016-Aug-11 17:33N 42°26' E 018°42'0 0.0
2016-Aug-11 16:33N 42°26' E 018°42'0 0.0
2016-Aug-11 15:33N 42°26' E 018°42'0 0.0
2016-Aug-11 14:33N 42°26' E 018°42'  

Dump ship's entire track history